Time;durP1;ratioP1;P1;durP2;ratioP2;P2;SDS_P1;SDS_P2;PMS_P1;PMS_P2;Temp;Humidity;BMP_temperature;BMP_pressure;BME280_temperature;BME280_humidity;BME280_pressure;Samples;Min_cycle;Max_cycle;Signal;HPM_P1;HPM_P2
2022/07/23 00:01:15;;;;;;;7.73;7.10;;;24.10;99.90;;;;;;5012612;28;20181;-68
2022/07/23 00:03:41;;;;;;;7.23;6.70;;;24.00;99.90;;;;;;5012260;28;20258;-67
2022/07/23 00:06:06;;;;;;;7.60;7.00;;;24.00;99.90;;;;;;5012783;28;20174;-68
2022/07/23 00:08:32;;;;;;;7.30;6.70;;;23.90;99.90;;;;;;5011714;28;20613;-68
2022/07/23 00:10:57;;;;;;;7.00;6.50;;;24.00;99.90;;;;;;5012427;28;20258;-68
2022/07/23 00:13:23;;;;;;;6.70;6.20;;;23.90;99.90;;;;;;5012616;28;20221;-68
2022/07/23 00:15:48;;;;;;;7.00;6.40;;;23.90;99.90;;;;;;5012504;28;20171;-68
2022/07/23 00:18:14;;;;;;;7.83;7.30;;;23.80;99.90;;;;;;5011556;28;20218;-68
2022/07/23 00:20:39;;;;;;;7.73;7.10;;;23.70;99.90;;;;;;5012427;28;20715;-68
2022/07/23 00:23:05;;;;;;;7.03;6.33;;;23.70;99.90;;;;;;5012301;28;20625;-67
2022/07/23 00:25:30;;;;;;;8.83;6.70;;;23.70;99.90;;;;;;5012330;28;20202;-68
2022/07/23 00:27:59;;;;;;;7.10;6.70;;;23.60;99.90;;;;;;5012128;28;20210;-67
2022/07/23 00:30:25;;;;;;;6.67;6.17;;;23.50;99.90;;;;;;5011694;28;20178;-68
2022/07/23 00:32:53;;;;;;;7.30;5.80;;;23.40;99.90;;;;;;5012141;28;20515;-68
2022/07/23 00:35:22;;;;;;;7.13;6.57;;;23.30;99.90;;;;;;5012254;28;20442;-68
2022/07/23 00:37:48;;;;;;;6.47;6.00;;;23.20;99.90;;;;;;5012155;28;20425;-67
2022/07/23 00:40:14;;;;;;;10.20;8.17;;;22.60;99.90;;;;;;5011589;28;20421;-68
2022/07/23 00:42:40;;;;;;;7.40;6.90;;;22.00;99.90;;;;;;5012271;28;20205;-68
2022/07/23 00:45:06;;;;;;;8.10;7.47;;;21.50;99.90;;;;;;5012126;28;20430;-68
2022/07/23 00:47:32;;;;;;;7.83;7.23;;;21.10;99.90;;;;;;5011992;28;20167;-68
2022/07/23 00:49:58;;;;;;;8.63;8.00;;;20.90;99.90;;;;;;5011339;28;20437;-68
2022/07/23 00:52:24;;;;;;;8.50;7.80;;;20.70;99.90;;;;;;5011980;28;20210;-69
2022/07/23 00:54:50;;;;;;;8.30;7.10;;;20.70;99.90;;;;;;5012211;28;20276;-68
2022/07/23 00:57:16;;;;;;;8.00;7.40;;;20.70;99.90;;;;;;5011967;28;20430;-68
2022/07/23 00:59:42;;;;;;;7.53;7.03;;;20.70;99.90;;;;;;5011281;28;20533;-68
2022/07/23 01:02:07;;;;;;;8.90;8.30;;;20.70;99.90;;;;;;5011977;28;20457;-68
2022/07/23 01:04:33;;;;;;;7.20;6.57;;;20.70;99.90;;;;;;5011957;28;20179;-68
2022/07/23 01:07:00;;;;;;;7.70;7.20;;;20.70;99.90;;;;;;5011973;28;20181;-68
2022/07/23 01:09:26;;;;;;;7.20;6.70;;;20.90;99.90;;;;;;5011135;28;20191;-68
2022/07/23 01:11:53;;;;;;;7.00;6.50;;;21.10;99.90;;;;;;5011785;28;20468;-68
2022/07/23 01:14:19;;;;;;;7.97;7.37;;;21.30;99.90;;;;;;5011939;28;20420;-68
2022/07/23 01:16:46;;;;;;;7.27;6.77;;;21.50;99.90;;;;;;5013443;28;20430;-68
2022/07/23 01:19:13;;;;;;;7.60;7.00;;;21.50;99.90;;;;;;5014887;28;20197;-68
2022/07/23 01:21:41;;;;;;;7.07;6.47;;;21.60;99.90;;;;;;5015524;28;20789;-67
2022/07/23 01:24:08;;;;;;;7.67;7.07;;;21.60;99.90;;;;;;5015477;28;20516;-68
2022/07/23 01:26:34;;;;;;;8.07;6.60;;;21.60;99.90;;;;;;5015613;28;20799;-68
2022/07/23 01:29:00;;;;;;;7.30;6.70;;;21.70;99.90;;;;;;5014560;28;20475;-68
2022/07/23 01:31:26;;;;;;;7.73;6.93;;;21.60;99.90;;;;;;5015267;28;20281;-67
2022/07/23 01:33:52;;;;;;;7.70;6.87;;;21.70;99.90;;;;;;5015325;28;20179;-68
2022/07/23 01:36:17;;;;;;;6.60;6.10;;;21.80;99.90;;;;;;5015241;28;20437;-68
2022/07/23 01:38:43;;;;;;;7.00;6.50;;;21.80;99.90;;;;;;5014468;28;20276;-68
2022/07/23 01:41:08;;;;;;;7.27;6.70;;;21.90;99.90;;;;;;5015217;28;20237;-68
2022/07/23 01:43:34;;;;;;;7.93;7.33;;;21.90;99.90;;;;;;5015106;28;20221;-68
2022/07/23 01:45:59;;;;;;;7.20;6.70;;;21.80;99.90;;;;;;5015085;28;20197;-68
2022/07/23 01:48:25;;;;;;;7.23;6.63;;;21.80;99.90;;;;;;5014352;28;20203;-68
2022/07/23 01:50:50;;;;;;;7.30;6.80;;;21.80;99.90;;;;;;5014863;28;20174;-68
2022/07/23 01:53:16;;;;;;;8.00;7.50;;;21.80;99.90;;;;;;4997487;28;20203;-68
2022/07/23 01:55:42;;;;;;;7.43;6.90;;;21.90;99.90;;;;;;5014906;28;20171;-69
2022/07/23 01:58:08;;;;;;;7.70;7.10;;;21.80;99.90;;;;;;4997139;28;20194;-68
2022/07/23 02:00:34;;;;;;;6.60;6.10;;;21.80;99.90;;;;;;5014256;28;20426;-69
2022/07/23 02:02:59;;;;;;;7.23;6.63;;;21.80;99.90;;;;;;5014834;28;20175;-68
2022/07/23 02:05:25;;;;;;;6.77;6.27;;;21.70;99.90;;;;;;5014713;28;20426;-67
2022/07/23 02:07:52;;;;;;;6.70;6.10;;;21.60;99.90;;;;;;5014688;28;20256;-68
2022/07/23 02:10:18;;;;;;;6.93;6.10;;;21.70;99.90;;;;;;5013979;28;20174;-68
2022/07/23 02:12:43;;;;;;;7.43;6.83;;;21.80;99.90;;;;;;5014570;28;20457;-68
2022/07/23 02:15:09;;;;;;;8.40;7.60;;;21.80;99.90;;;;;;5014534;28;20205;-68
2022/07/23 02:17:35;;;;;;;7.70;6.90;;;21.80;99.90;;;;;;5014516;28;20641;-68
2022/07/23 02:20:00;;;;;;;7.33;6.60;;;21.70;99.90;;;;;;5013748;28;20429;-68
2022/07/23 02:22:26;;;;;;;8.03;7.33;;;21.70;99.90;;;;;;5014762;28;20171;-68
2022/07/23 02:24:51;;;;;;;7.00;6.40;;;21.80;99.90;;;;;;5014462;28;20179;-68
2022/07/23 02:27:17;;;;;;;6.90;6.27;;;21.80;99.90;;;;;;5014155;28;20273;-67
2022/07/23 02:29:42;;;;;;;6.70;6.10;;;21.80;99.90;;;;;;5013403;28;20592;-68
2022/07/23 02:32:08;;;;;;;7.40;6.80;;;21.80;99.90;;;;;;5014184;28;20203;-69
2022/07/23 02:34:33;;;;;;;6.27;5.83;;;21.80;99.90;;;;;;5014215;28;20254;-68
2022/07/23 02:36:59;;;;;;;6.37;5.97;;;21.80;99.90;;;;;;5014150;28;20257;-67
2022/07/23 02:39:24;;;;;;;7.17;6.57;;;21.80;99.90;;;;;;5013334;28;20600;-68
2022/07/23 02:41:50;;;;;;;7.80;7.30;;;21.70;99.90;;;;;;5014085;28;20183;-68
2022/07/23 02:44:16;;;;;;;7.13;6.43;;;21.80;99.90;;;;;;5014017;28;20182;-68
2022/07/23 02:46:41;;;;;;;7.37;6.80;;;21.70;99.90;;;;;;5013958;28;20187;-68
2022/07/23 02:49:07;;;;;;;6.80;6.30;;;21.70;99.90;;;;;;5013256;28;20195;-68
2022/07/23 02:51:32;;;;;;;6.27;5.77;;;21.70;99.90;;;;;;5013786;28;20290;-68
2022/07/23 02:53:58;;;;;;;7.30;6.80;;;21.70;99.90;;;;;;5013923;28;20178;-67
2022/07/23 02:56:23;;;;;;;7.93;7.07;;;21.60;99.90;;;;;;5013791;28;20175;-68
2022/07/23 02:58:49;;;;;;;7.50;6.90;;;21.60;99.90;;;;;;5012843;28;20648;-68
2022/07/23 03:01:14;;;;;;;7.90;7.30;;;21.50;99.90;;;;;;5013769;28;20268;-68
2022/07/23 03:03:40;;;;;;;7.07;6.57;;;21.50;99.90;;;;;;5013684;28;20191;-68
2022/07/23 03:06:05;;;;;;;8.90;7.57;;;21.50;99.90;;;;;;4996207;28;20175;-68
2022/07/23 03:08:31;;;;;;;6.97;6.43;;;21.60;99.90;;;;;;5012826;28;20199;-68
2022/07/23 03:10:57;;;;;;;7.00;6.40;;;21.60;99.90;;;;;;5013485;28;20206;-68
2022/07/23 03:13:22;;;;;;;7.23;6.67;;;21.60;99.90;;;;;;5013417;28;20171;-68
2022/07/23 03:15:48;;;;;;;7.50;7.00;;;21.60;99.90;;;;;;5013524;28;20230;-67
2022/07/23 03:18:13;;;;;;;7.50;6.93;;;21.60;99.90;;;;;;5012589;28;20682;-68
2022/07/23 03:20:39;;;;;;;6.47;5.93;;;21.70;99.90;;;;;;5013448;28;20632;-68
2022/07/23 03:23:04;;;;;;;6.90;6.40;;;21.70;99.90;;;;;;5013360;28;20651;-68
2022/07/23 03:25:30;;;;;;;7.63;7.03;;;21.70;99.90;;;;;;5013319;28;20179;-68
2022/07/23 03:27:55;;;;;;;7.10;6.50;;;21.70;99.90;;;;;;5013411;28;20280;-67
2022/07/23 03:30:21;;;;;;;7.43;6.90;;;21.70;99.90;;;;;;5012575;28;20179;-67
2022/07/23 03:32:47;;;;;;;7.97;7.30;;;21.70;99.90;;;;;;5012981;28;20217;-67
2022/07/23 03:35:12;;;;;;;7.03;6.43;;;21.80;99.90;;;;;;5013112;28;20179;-67
2022/07/23 03:37:38;;;;;;;8.17;7.47;;;21.80;99.90;;;;;;5013052;28;20199;-68
2022/07/23 03:40:05;;;;;;;6.80;6.40;;;21.90;99.90;;;;;;5011775;28;20190;-68
2022/07/23 03:42:30;;;;;;;7.50;6.90;;;21.80;99.90;;;;;;5012904;28;20202;-67
2022/07/23 03:44:56;;;;;;;7.90;7.10;;;21.70;99.90;;;;;;5012950;28;20950;-67
2022/07/23 03:47:21;;;;;;;7.73;7.13;;;21.60;99.90;;;;;;5012763;28;20179;-67
2022/07/23 03:49:47;;;;;;;8.33;7.40;;;21.40;99.90;;;;;;5012105;28;20257;-67
2022/07/23 03:52:13;;;;;;;7.17;6.67;;;21.30;99.90;;;;;;5011185;28;20734;-68
2022/07/23 03:54:39;;;;;;;7.63;7.13;;;21.20;99.90;;;;;;5012811;28;20476;-67
2022/07/23 03:57:04;;;;;;;8.10;7.50;;;21.20;99.90;;;;;;5012782;28;20167;-67
2022/07/23 03:59:30;;;;;;;7.73;7.10;;;21.20;99.90;;;;;;5011916;28;20668;-67
2022/07/23 04:01:55;;;;;;;8.13;7.43;;;21.30;99.90;;;;;;5012617;28;20167;-67
2022/07/23 04:04:21;;;;;;;7.70;7.00;;;21.30;99.90;;;;;;5012671;28;20171;-67
2022/07/23 04:06:46;;;;;;;8.27;7.67;;;21.40;99.90;;;;;;5012606;28;20179;-68
2022/07/23 04:09:12;;;;;;;8.77;8.07;;;21.30;99.90;;;;;;5011782;28;20195;-68
2022/07/23 04:11:37;;;;;;;7.40;6.80;;;21.40;99.90;;;;;;5012483;28;20202;-67
2022/07/23 04:14:03;;;;;;;7.43;6.93;;;21.40;99.90;;;;;;5012620;28;20171;-67
2022/07/23 04:16:30;;;;;;;9.03;8.23;;;21.30;99.90;;;;;;5012471;28;20182;-67
2022/07/23 04:18:56;;;;;;;7.70;7.03;;;21.30;99.90;;;;;;5011678;28;20183;-68
2022/07/23 04:21:23;;;;;;;9.30;8.60;;;21.30;99.90;;;;;;5012299;28;20957;-67
2022/07/23 04:23:49;;;;;;;8.07;7.43;;;21.30;99.90;;;;;;5012305;28;20190;-67
2022/07/23 04:26:14;;;;;;;7.50;6.90;;;21.40;99.90;;;;;;5012288;28;20471;-67
2022/07/23 04:28:40;;;;;;;7.83;7.10;;;21.40;99.90;;;;;;5011343;28;20240;-67
2022/07/23 04:31:05;;;;;;;8.07;7.50;;;21.40;99.90;;;;;;5012258;28;20182;-67
2022/07/23 04:33:31;;;;;;;9.83;8.93;;;21.40;99.90;;;;;;5012302;28;20516;-68
2022/07/23 04:35:56;;;;;;;7.17;6.47;;;21.40;99.90;;;;;;5012217;28;20179;-67
2022/07/23 04:38:22;;;;;;;7.90;7.30;;;21.50;99.90;;;;;;5011447;28;20206;-67
2022/07/23 04:40:47;;;;;;;7.63;7.03;;;21.50;99.90;;;;;;5012319;28;20175;-68
2022/07/23 04:43:13;;;;;;;8.10;7.40;;;21.60;99.90;;;;;;5012186;28;20572;-68
2022/07/23 04:45:38;;;;;;;8.27;7.37;;;21.60;99.90;;;;;;5012290;28;20202;-68
2022/07/23 04:48:04;;;;;;;7.43;6.93;;;21.60;99.90;;;;;;5012208;28;20202;-68
2022/07/23 04:50:30;;;;;;;8.07;7.37;;;21.60;99.90;;;;;;5011253;28;20911;-68
2022/07/23 04:52:55;;;;;;;7.73;7.13;;;21.70;99.90;;;;;;5016069;28;20202;-69
2022/07/23 04:55:21;;;;;;;8.60;8.00;;;21.80;99.90;;;;;;5016163;28;20263;-68
2022/07/23 04:57:46;;;;;;;7.97;7.27;;;21.80;99.90;;;;;;5016007;28;20191;-69
2022/07/23 05:00:12;;;;;;;8.30;7.60;;;21.90;99.90;;;;;;5015184;28;20720;-68
2022/07/23 05:02:38;;;;;;;8.27;7.57;;;21.90;99.90;;;;;;5015951;28;20183;-69
2022/07/23 05:05:03;;;;;;;8.33;7.60;;;21.90;99.90;;;;;;5015947;28;20175;-68
2022/07/23 05:07:29;;;;;;;8.50;7.00;;;22.00;99.90;;;;;;5015870;28;20183;-69
2022/07/23 05:09:54;;;;;;;7.67;7.07;;;22.10;99.90;;;;;;5015202;28;20171;-69
2022/07/23 05:12:20;;;;;;;8.13;7.53;;;22.20;99.90;;;;;;5015659;28;20667;-68
2022/07/23 05:14:45;;;;;;;7.70;7.20;;;22.30;99.90;;;;;;5015668;28;20257;-69
2022/07/23 05:17:11;;;;;;;8.27;7.50;;;22.30;99.90;;;;;;5015556;28;20183;-69
2022/07/23 05:19:36;;;;;;;14.00;7.00;;;22.40;99.90;;;;;;5014871;28;20218;-67
2022/07/23 05:22:02;;;;;;;8.50;7.70;;;22.30;99.90;;;;;;5015587;28;20177;-69
2022/07/23 05:24:28;;;;;;;7.10;6.50;;;22.30;99.90;;;;;;5015676;28;20201;-68
2022/07/23 05:26:53;;;;;;;8.50;7.70;;;22.30;99.90;;;;;;5015485;28;20171;-68
2022/07/23 05:29:19;;;;;;;8.30;7.60;;;22.40;99.90;;;;;;5014570;28;20349;-69
2022/07/23 05:31:44;;;;;;;8.57;7.87;;;22.40;99.90;;;;;;5015429;28;20277;-68
2022/07/23 05:34:10;;;;;;;8.03;7.33;;;22.60;99.90;;;;;;5015405;28;20205;-68
2022/07/23 05:36:35;;;;;;;8.20;7.60;;;22.60;99.90;;;;;;5015293;28;20175;-69
2022/07/23 05:39:01;;;;;;;8.73;8.13;;;22.60;99.90;;;;;;4996894;28;20286;-69
2022/07/23 05:41:27;;;;;;;8.07;7.43;;;22.50;99.90;;;;;;5015175;28;20171;-69
2022/07/23 05:43:52;;;;;;;8.47;7.77;;;22.40;99.90;;;;;;5015162;28;20179;-69
2022/07/23 05:46:18;;;;;;;9.10;8.50;;;22.30;99.90;;;;;;5015085;28;20167;-69
2022/07/23 05:48:45;;;;;;;8.17;7.43;;;22.30;99.90;;;;;;5014345;28;20221;-68
2022/07/23 05:51:11;;;;;;;8.23;7.63;;;22.30;99.90;;;;;;5015004;28;20649;-69
2022/07/23 05:53:38;;;;;;;8.90;7.97;;;22.30;99.90;;;;;;5015074;28;20442;-69
2022/07/23 05:56:03;;;;;;;9.20;8.40;;;22.40;99.90;;;;;;5014988;28;20170;-69
2022/07/23 05:58:29;;;;;;;8.40;7.80;;;22.50;99.90;;;;;;5014138;28;20456;-68
2022/07/23 06:00:54;;;;;;;9.83;9.03;;;22.70;99.90;;;;;;5014798;28;20182;-69
2022/07/23 06:03:20;;;;;;;9.43;8.73;;;22.90;99.90;;;;;;5014252;28;20181;-69
2022/07/23 06:05:45;;;;;;;8.67;7.87;;;23.10;99.90;;;;;;5014826;28;20222;-68
2022/07/23 06:08:11;;;;;;;9.23;8.43;;;23.20;99.90;;;;;;5014214;28;20196;-68
2022/07/23 06:10:37;;;;;;;11.80;10.80;;;23.50;99.90;;;;;;5014590;28;20175;-69
2022/07/23 06:13:02;;;;;;;9.83;9.03;;;23.60;99.90;;;;;;5014602;28;20209;-69
2022/07/23 06:15:28;;;;;;;8.80;8.20;;;23.80;99.90;;;;;;5014540;28;20178;-68
2022/07/23 06:17:54;;;;;;;9.80;8.90;;;23.90;99.90;;;;;;5014479;28;20191;-68
2022/07/23 06:20:19;;;;;;;8.50;7.90;;;24.00;99.90;;;;;;4996225;28;20441;-69
2022/07/23 06:22:45;;;;;;;10.60;9.70;;;24.00;99.90;;;;;;5014562;28;20547;-69
2022/07/23 06:25:10;;;;;;;9.40;8.70;;;24.10;99.90;;;;;;5014527;28;20663;-67
2022/07/23 06:27:36;;;;;;;9.17;8.27;;;24.20;99.90;;;;;;5014203;28;20679;-68
2022/07/23 06:30:01;;;;;;;9.00;8.20;;;24.30;99.90;;;;;;5013601;28;20262;-68
2022/07/23 06:32:27;;;;;;;8.50;7.90;;;24.50;99.90;;;;;;5014228;28;20292;-67
2022/07/23 06:34:52;;;;;;;9.00;8.30;;;24.70;99.90;;;;;;5014220;28;20237;-67
2022/07/23 06:37:18;;;;;;;8.00;7.50;;;24.70;99.90;;;;;;5014157;28;20651;-68
2022/07/23 06:39:43;;;;;;;8.37;7.73;;;24.80;99.90;;;;;;5013524;28;20175;-70
2022/07/23 06:42:10;;;;;;;8.50;7.90;;;24.80;99.90;;;;;;5014119;28;20182;-68
2022/07/23 06:44:35;;;;;;;9.13;8.40;;;24.80;99.90;;;;;;5013951;28;20199;-68
2022/07/23 06:47:01;;;;;;;8.20;7.50;;;25.10;99.90;;;;;;5014275;28;20453;-69
2022/07/23 06:49:26;;;;;;;8.60;8.00;;;25.00;99.90;;;;;;5013188;28;20714;-68
2022/07/23 06:51:52;;;;;;;8.37;7.77;;;25.30;99.90;;;;;;5013969;28;20203;-68
2022/07/23 06:54:17;;;;;;;12.47;11.30;;;25.30;99.90;;;;;;5013918;28;20182;-68
2022/07/23 06:56:43;;;;;;;8.67;7.90;;;25.40;99.90;;;;;;5013825;28;20178;-69
2022/07/23 06:59:09;;;;;;;9.53;8.70;;;25.40;99.90;;;;;;5013479;28;20202;-69
2022/07/23 07:01:34;;;;;;;9.10;8.50;;;25.30;99.90;;;;;;5013735;28;20186;-69
2022/07/23 07:04:00;;;;;;;8.40;7.80;;;25.30;99.90;;;;;;5013693;28;20254;-68
2022/07/23 07:06:25;;;;;;;7.97;7.40;;;25.20;99.90;;;;;;5013690;28;20194;-69
2022/07/23 07:08:51;;;;;;;8.50;7.80;;;25.30;99.90;;;;;;5012767;28;20194;-68
2022/07/23 07:11:16;;;;;;;8.97;8.27;;;25.20;99.90;;;;;;5013466;28;20210;-68
2022/07/23 07:13:42;;;;;;;9.13;8.33;;;25.30;99.90;;;;;;5012448;28;20178;-70
2022/07/23 07:16:07;;;;;;;8.23;7.63;;;25.10;99.90;;;;;;5013579;28;20202;-69
2022/07/23 07:18:33;;;;;;;8.37;7.77;;;25.00;99.90;;;;;;5012608;28;20186;-69
2022/07/23 07:20:58;;;;;;;8.60;8.00;;;24.90;99.90;;;;;;4995822;28;20229;-68
2022/07/23 07:23:24;;;;;;;8.50;7.80;;;24.70;99.90;;;;;;5013325;28;20175;-69
2022/07/23 07:25:49;;;;;;;8.00;7.30;;;24.60;99.90;;;;;;5013291;28;20181;-69
2022/07/23 07:28:15;;;;;;;7.63;7.03;;;24.50;99.90;;;;;;5012299;28;20552;-69
2022/07/23 07:30:40;;;;;;;8.00;7.30;;;24.50;99.90;;;;;;5013399;28;20182;-67
2022/07/23 07:33:06;;;;;;;10.20;9.33;;;24.50;99.90;;;;;;5013298;28;20198;-69
2022/07/23 07:35:32;;;;;;;10.20;9.33;;;24.70;99.90;;;;;;5013184;28;20174;-69
2022/07/23 07:37:59;;;;;;;9.43;8.73;;;24.70;99.90;;;;;;5013027;28;20187;-69
2022/07/23 07:40:24;;;;;;;8.23;7.63;;;25.00;99.90;;;;;;5012320;28;20414;-69
2022/07/23 07:42:52;;;;;;;9.30;8.50;;;25.10;99.90;;;;;;5012877;28;20433;-68
2022/07/23 07:45:20;;;;;;;8.87;8.27;;;25.50;99.90;;;;;;5012992;28;20249;-68
2022/07/23 07:47:46;;;;;;;8.87;8.27;;;26.10;99.90;;;;;;5012910;28;20449;-70
2022/07/23 07:50:12;;;;;;;8.67;7.97;;;26.30;99.90;;;;;;5012249;28;20418;-68
2022/07/23 07:52:37;;;;;;;8.13;7.53;;;26.50;99.90;;;;;;5012826;28;20544;-69
2022/07/23 07:55:05;;;;;;;9.47;8.67;;;26.90;99.90;;;;;;5012812;28;20216;-70
2022/07/23 07:57:30;;;;;;;8.53;7.83;;;27.10;99.90;;;;;;5012553;28;20194;-68
2022/07/23 07:59:56;;;;;;;8.50;7.80;;;27.40;99.90;;;;;;5012042;28;20445;-69
2022/07/23 08:02:21;;;;;;;8.37;7.77;;;27.70;99.90;;;;;;5012739;28;20241;-68
2022/07/23 08:04:48;;;;;;;7.60;7.10;;;27.70;99.90;;;;;;5012685;28;20230;-68
2022/07/23 08:07:14;;;;;;;8.50;7.70;;;27.70;99.90;;;;;;5012631;28;20229;-68
2022/07/23 08:09:40;;;;;;;8.43;7.70;;;27.80;99.90;;;;;;5011842;28;20524;-68
2022/07/23 08:12:05;;;;;;;7.90;7.30;;;27.60;99.90;;;;;;5012391;28;20552;-69
2022/07/23 08:14:31;;;;;;;8.50;7.80;;;27.70;99.90;;;;;;5012513;28;20171;-69
2022/07/23 08:16:56;;;;;;;8.07;7.47;;;27.30;99.90;;;;;;5012448;28;20175;-68
2022/07/23 08:19:22;;;;;;;7.70;7.20;;;27.30;99.90;;;;;;5011675;28;20194;-69
2022/07/23 08:21:47;;;;;;;8.97;8.27;;;27.10;99.90;;;;;;5012444;28;20587;-69
2022/07/23 08:24:13;;;;;;;8.00;7.37;;;27.10;99.90;;;;;;5012435;28;20175;-68
2022/07/23 08:26:39;;;;;;;7.60;7.10;;;26.90;99.90;;;;;;5011995;28;20179;-68
2022/07/23 08:29:04;;;;;;;8.30;7.77;;;26.90;99.90;;;;;;5011507;28;20571;-70
2022/07/23 08:31:30;;;;;;;12.30;11.30;;;26.90;99.90;;;;;;5012142;28;20194;-68
2022/07/23 08:33:56;;;;;;;7.93;7.20;;;26.80;99.90;;;;;;5012355;28;20195;-69
2022/07/23 08:36:22;;;;;;;7.43;6.87;;;27.00;99.90;;;;;;5012245;28;20257;-68
2022/07/23 08:38:47;;;;;;;8.20;7.60;;;26.80;99.90;;;;;;5011452;28;20525;-69
2022/07/23 08:41:14;;;;;;;7.47;6.97;;;27.30;99.90;;;;;;5012070;28;20167;-69
2022/07/23 08:43:40;;;;;;;8.80;8.07;;;28.00;99.90;;;;;;5012183;28;20262;-69
2022/07/23 08:46:06;;;;;;;8.90;8.20;;;28.20;99.40;;;;;;5012175;28;20413;-69
2022/07/23 08:48:36;;;;;;;8.07;7.37;;;28.60;98.80;;;;;;5011369;28;20521;-69
2022/07/23 08:51:03;;;;;;;8.20;7.60;;;29.00;97.70;;;;;;5012053;28;20190;-69
2022/07/23 08:53:32;;;;;;;7.90;7.30;;;29.50;97.10;;;;;;5012154;28;20439;-69
2022/07/23 08:56:03;;;;;;;7.77;7.13;;;29.90;96.30;;;;;;5012043;28;20903;-69
2022/07/23 08:58:30;;;;;;;8.37;7.87;;;30.40;94.80;;;;;;5011295;28;20492;-66
2022/07/23 09:00:57;;;;;;;7.87;7.37;;;30.60;93.30;;;;;;5012091;28;20989;-67
2022/07/23 09:03:30;;;;;;;7.83;7.23;;;30.30;92.50;;;;;;5012042;28;20453;-66
2022/07/23 09:05:58;;;;;;;8.10;7.50;;;30.30;92.50;;;;;;5011971;28;20918;-67
2022/07/23 09:08:42;;;;;;;8.33;7.73;;;30.40;91.60;;;;;;5011154;28;20437;-67
2022/07/23 09:11:10;;;;;;;7.37;6.87;;;30.40;91.50;;;;;;4994339;28;20903;-67
2022/07/23 09:13:42;;;;;;;7.90;7.40;;;30.80;90.20;;;;;;5011978;28;20436;-66
2022/07/23 09:16:13;;;;;;;7.97;7.37;;;31.20;89.10;;;;;;5011935;28;20516;-66
2022/07/23 09:18:44;;;;;;;8.17;7.53;;;31.30;86.90;;;;;;5011035;28;20526;-66
2022/07/23 09:21:14;;;;;;;8.43;7.83;;;31.60;84.20;;;;;;5011842;28;20414;-67
2022/07/23 09:23:46;;;;;;;7.97;7.50;;;31.90;81.30;;;;;;5011795;28;20452;-67
2022/07/23 09:26:26;;;;;;;8.00;7.40;;;32.30;79.30;;;;;;5011793;28;20422;-67
2022/07/23 09:28:52;;;;;;;7.97;7.47;;;32.70;78.40;;;;;;5026521;22;20505;-67
2022/07/23 09:31:18;;;;;;;8.67;8.07;;;32.70;77.30;;;;;;5011352;28;20476;-67
2022/07/23 09:33:43;;;;;;;7.83;7.33;;;32.40;75.00;;;;;;5011477;28;20418;-67
2022/07/23 09:36:09;;;;;;;8.23;7.67;;;32.00;75.10;;;;;;5011464;28;20179;-67
2022/07/23 09:38:48;;;;;;;8.40;7.80;;;31.60;75.70;;;;;;5013418;28;20869;-67
2022/07/23 09:41:14;;;;;;;8.73;8.13;;;31.60;77.20;;;;;;5015078;28;20171;-67
2022/07/23 09:43:39;;;;;;;7.70;7.10;;;32.10;74.40;;;;;;5015152;28;20512;-67
2022/07/23 09:46:22;;;;;;;7.63;7.13;;;31.80;73.60;;;;;;5015031;28;20241;-67
2022/07/23 09:48:48;;;;;;;7.70;7.10;;;32.40;72.20;;;;;;5014120;28;20312;-67
2022/07/23 09:51:47;;;;;;;8.03;7.53;;;32.90;72.30;;;;;;5014747;28;20429;-68
2022/07/23 09:54:19;;;;;;;8.20;7.60;;;33.70;69.90;;;;;;5011617;28;20552;-68
2022/07/23 09:56:46;;;;;;;8.20;7.70;;;34.00;67.50;;;;;;5014700;28;20417;-68
2022/07/23 09:59:12;;;;;;;7.57;6.87;;;34.00;67.30;;;;;;5013834;28;20441;-68
2022/07/23 10:01:38;;;;;;;7.57;7.07;;;34.50;66.70;;;;;;5014703;28;20515;-68
2022/07/23 10:04:05;;;;;;;7.83;7.20;;;34.30;64.60;;;;;;5014603;28;20218;-68
2022/07/23 10:06:31;;;;;;;8.40;7.80;;;34.70;62.10;;;;;;5014551;28;20799;-68
2022/07/23 10:08:59;;;;;;;9.13;8.53;;;35.70;61.20;;;;;;5013755;28;20447;-68
2022/07/23 10:11:26;;;;;;;7.53;7.13;;;35.80;59.10;;;;;;5014442;28;20445;-68
2022/07/23 10:14:01;;;;;;;7.10;6.50;;;36.20;59.10;;;;;;5014447;28;20432;-68
2022/07/23 10:16:27;;;;;;;7.30;6.90;;;36.50;57.70;;;;;;5014436;28;20914;-68
2022/07/23 10:18:52;;;;;;;7.10;6.60;;;36.70;56.70;;;;;;5013831;28;20496;-68
2022/07/23 10:21:34;;;;;;;7.57;7.07;;;37.10;56.80;;;;;;5014490;28;20178;-68
2022/07/23 10:24:23;;;;;;;8.30;7.60;;;37.20;54.80;;;;;;5014481;28;20202;-68
2022/07/23 10:27:05;;;;;;;7.97;7.47;;;36.50;54.90;;;;;;5014470;28;21126;-68
2022/07/23 10:29:53;;;;;;;7.80;7.30;;;37.50;54.30;;;;;;5013533;28;20461;-68
2022/07/23 10:32:39;;;;;;;7.20;6.80;;;38.20;53.20;;;;;;5014305;28;20465;-67
2022/07/23 10:36:06;;;;;;;7.10;6.67;;;38.60;52.00;;;;;;5014317;28;20744;-67
2022/07/23 10:38:52;;;;;;;8.37;7.77;;;37.10;53.00;;;;;;4911715;29;20939;-67
2022/07/23 10:41:31;;;;;;;7.77;7.00;;;35.60;54.70;;;;;;5014012;28;20418;-67
2022/07/23 10:44:16;;;;;;;7.37;6.87;;;34.70;56.20;;;;;;5013892;28;20735;-67
2022/07/23 10:49:35;;;;;;;8.47;7.93;;;35.00;56.10;;;;;;5013081;28;20434;-68
2022/07/23 10:52:13;;;;;;;8.53;8.03;;;36.10;54.80;;;;;;5013584;28;20484;-68
2022/07/23 10:54:40;;;;;;;8.33;7.83;;;36.80;53.70;;;;;;5013647;28;20515;-67
2022/07/23 10:57:07;;;;;;;7.40;6.90;;;35.50;54.70;;;;;;5013576;28;20453;-68
2022/07/23 11:02:30;;;;;;;7.43;6.93;;;36.20;54.40;;;;;;5013454;28;20426;-68
2022/07/23 11:05:08;;;;;;;7.83;7.33;;;38.20;51.90;;;;;;5013394;28;20484;-68
2022/07/23 11:07:34;;;;;;;8.10;7.60;;;39.10;49.90;;;;;;5013453;28;20422;-68
2022/07/23 11:10:00;;;;;;;7.87;7.27;;;40.10;48.80;;;;;;5012499;28;20446;-68
2022/07/23 11:12:28;;;;;;;7.67;7.17;;;41.50;47.70;;;;;;5013229;28;20464;-68
2022/07/23 11:15:08;;;;;;;8.27;7.77;;;42.20;45.30;;;;;;5013319;28;20178;-68
2022/07/23 11:17:59;;;;;;;7.13;6.63;;;41.80;42.70;;;;;;5013242;28;20421;-67
2022/07/23 11:20:25;;;;;;;8.87;8.27;;;40.80;44.40;;;;;;5012554;28;20420;-68
2022/07/23 11:22:58;;;;;;;8.23;7.70;;;39.70;46.00;;;;;;4995458;28;20423;-68
2022/07/23 11:25:29;;;;;;;7.00;6.60;;;39.50;45.40;;;;;;5013169;28;20175;-68
2022/07/23 11:28:16;;;;;;;7.87;7.37;;;38.40;46.10;;;;;;5012840;28;20435;-68
2022/07/23 11:30:45;;;;;;;7.20;6.70;;;37.20;47.30;;;;;;5012808;28;20430;-68
2022/07/23 11:33:10;;;;;;;8.00;7.50;;;38.30;47.10;;;;;;5012866;28;20492;-68
2022/07/23 11:35:44;;;;;;;7.30;6.90;;;38.70;46.80;;;;;;5012788;28;20442;-68
2022/07/23 11:38:19;;;;;;;7.67;7.27;;;39.50;45.80;;;;;;5012506;28;20191;-68
2022/07/23 11:40:47;;;;;;;8.23;7.43;;;40.40;44.90;;;;;;5012703;28;20497;-68
2022/07/23 11:43:13;;;;;;;8.70;8.10;;;40.50;42.80;;;;;;5012720;28;20501;-68
2022/07/23 11:45:40;;;;;;;8.53;7.77;;;39.60;44.20;;;;;;5012607;28;20845;-67
2022/07/23 11:48:09;;;;;;;7.70;7.20;;;37.70;45.70;;;;;;4995048;28;20970;-67
2022/07/23 11:50:36;;;;;;;7.63;7.13;;;36.50;47.70;;;;;;5012757;28;20767;-67
2022/07/23 11:53:02;;;;;;;10.07;9.27;;;35.90;48.70;;;;;;5012750;28;20484;-68
2022/07/23 11:55:28;;;;;;;7.80;7.37;;;36.40;48.70;;;;;;5012900;28;20422;-68
2022/07/23 11:57:54;;;;;;;8.20;7.70;;;38.70;46.50;;;;;;5012576;28;20437;-67
2022/07/23 12:00:25;;;;;;;6.87;6.33;;;40.00;44.60;;;;;;5011569;28;20406;-68
2022/07/23 12:02:58;;;;;;;7.80;7.20;;;40.70;43.90;;;;;;5012755;28;20473;-68
2022/07/23 12:05:28;;;;;;;8.20;7.70;;;41.10;43.30;;;;;;5012584;28;20445;-68
2022/07/23 12:07:55;;;;;;;7.33;6.90;;;41.00;43.10;;;;;;5012403;28;20428;-68
2022/07/23 12:10:23;;;;;;;8.97;8.37;;;40.60;43.00;;;;;;5011589;28;20425;-68
2022/07/23 12:12:51;;;;;;;7.50;7.00;;;41.50;42.60;;;;;;5012209;28;20454;-68
2022/07/23 12:15:19;;;;;;;8.17;7.67;;;43.10;40.60;;;;;;5012315;28;20418;-68
2022/07/23 12:17:46;;;;;;;8.33;7.83;;;44.00;40.20;;;;;;5012099;28;20413;-68
2022/07/23 12:20:15;;;;;;;7.83;7.33;;;43.80;39.80;;;;;;5011412;28;20977;-68
2022/07/23 12:22:46;;;;;;;8.20;7.70;;;42.60;39.90;;;;;;5012119;28;20552;-67
2022/07/23 12:25:15;;;;;;;8.70;8.10;;;40.50;40.70;;;;;;5012010;28;20505;-67
2022/07/23 12:27:41;;;;;;;9.43;8.50;;;39.80;42.40;;;;;;5011953;28;20501;-67
2022/07/23 12:30:28;;;;;;;8.47;7.77;;;40.00;42.60;;;;;;5011266;28;20441;-67
2022/07/23 12:32:56;;;;;;;8.20;7.60;;;39.90;41.80;;;;;;5011984;28;20458;-67
2022/07/23 12:35:29;;;;;;;8.47;7.93;;;38.90;42.50;;;;;;5011910;28;20422;-67
2022/07/23 12:38:01;;;;;;;7.90;7.30;;;37.70;43.90;;;;;;5012113;28;20409;-67
2022/07/23 12:40:28;;;;;;;7.63;7.13;;;38.10;44.30;;;;;;5011262;28;20963;-67
2022/07/23 12:42:55;;;;;;;8.07;7.47;;;38.50;43.10;;;;;;5011953;28;20414;-67
2022/07/23 12:45:21;;;;;;;7.93;7.43;;;38.40;43.60;;;;;;5011978;28;20414;-67
2022/07/23 12:48:01;;;;;;;7.73;7.33;;;37.70;44.70;;;;;;5011825;28;20429;-67
2022/07/23 12:50:47;;;;;;;8.70;8.10;;;37.90;45.90;;;;;;5011182;28;20427;-67
2022/07/23 12:53:16;;;;;;;8.53;7.90;;;37.00;46.00;;;;;;5011886;28;20457;-67